Weather observations for the past three days for
Clarion
Metric (Imperial)
Date Time (cdt) Wind (kph) Vis. (km) Weather Sky Cond. Temperature (ºC) Relative Humidity Wind Chill (°C) Heat Index (°C) Pressure Precipitation (cm)
Air Dwpt 6 hour altimeter (cm) sea level (mb) 1 hr 3 hr 6 hr
Max. Min.
09 14:55 NW 31 G 48 16.09 Fair CLR 19 -2 24% 75.72 0.0
09 14:35 N 26 G 50 16.09 Fair CLR 19 -1 26% 75.69 0.0
09 14:15 N 28 G 50 16.09 Fair CLR 19 1 30% 75.69 0.0
09 13:55 NW 33 G 48 16.09 Fair and Breezy CLR 19 0 28% 75.67 0.0
09 13:35 NW 35 G 50 16.09 Partly Cloudy and Breezy SCT090 18 1 32% 75.67 0.0
09 13:15 NW 30 G 44 16.09 Mostly Cloudy BKN090 18 1 32% 75.67 0.0
09 12:55 NW 28 G 39 16.09 Mostly Cloudy BKN095 BKN110 18 2 34% 75.64 0.0
09 12:35 N 30 G 44 16.09 Partly Cloudy SCT100 18 4 40% 75.64 0.0
09 12:15 NW 30 G 43 16.09 Partly Cloudy FEW043 SCT100 18 6 46% 75.64 0.0
09 11:55 NW 28 G 44 16.09 Fair CLR 17 6 49% 75.64 0.0
09 11:35 NW 28 G 44 16.09 Partly Cloudy SCT075 SCT090 17 6 49% 75.64 0.0
09 11:15 NW 37 16.09 Mostly Cloudy and Breezy BKN075 BKN090 16 5 48% 75.62 0.0
09 10:55 NW 31 16.09 Fair CLR 16 5 48% 75.62 0.0
09 10:35 N 33 16.09 A Few Clouds and Breezy FEW090 16 5 48% 75.57 0.0
09 10:15 NW 28 16.09 Mostly Cloudy BKN085 16 5 48% 75.57 0.0
09 09:55 NW 20 16.09 Mostly Cloudy BKN085 16 5 48% 75.54 0.0
09 09:35 NW 30 16.09 Partly Cloudy SCT085 16 4 45% 75.59 0.0
09 09:15 NW 22 16.09 A Few Clouds FEW100 16 4 45% 75.57 0.0
09 08:55 NW 19 16.09 A Few Clouds FEW100 FEW120 14 2 44% 75.54 0.0
09 08:35 NW 22 16.09 A Few Clouds FEW120 14 1 41% 75.54 0.0
09 08:15 NW 22 16.09 A Few Clouds FEW120 14 0 39% 75.54 0.0
09 07:55 NW 30 0.00 Fair CLR 14 0 39% 75.51 0.0
09 07:35 W 20 16.09 Fair CLR 14 0 39% 75.51 0.0
09 07:15 NW 15 16.09 Fair CLR 11 0 47% 75.46 0.0
09 06:55 NW 26 G 44 16.09 Fair CLR 8 -1 53% 5 75.49 0.0
09 06:35 S 9 16.09 Fair CLR 6 -1 61% 4 75.34 0.0
09 06:15 S 11 16.09 Fair CLR 5 -2 61% 3 75.34 0.0
09 05:55 S 11 16.09 Fair CLR 5 -2 61% 3 75.31 0.0
09 05:35 S 11 16.09 Fair CLR 5 -2 61% 3 75.31 0.0
09 05:15 S 9 16.09 Fair CLR 5 -3 57% 3 75.34 0.0
09 04:55 SW 9 16.09 Fair CLR 5 -3 57% 3 75.36 0.0
09 04:35 SW 7 16.09 Fair CLR 5 -3 57% 4 75.36 0.0
09 04:15 S 13 16.09 Fair CLR 6 -2 57% 4 75.34 0.0
09 03:55 S 9 16.09 Fair CLR 6 -3 53% 4 75.34 0.0
09 03:35 SW 6 16.09 Fair CLR 7 -3 49% 75.34 0.0
09 02:55 Calm 16.09 Fair CLR 7 -3 49% 75.36 0.0
09 02:35 Calm 16.09 A Few Clouds FEW060 8 -2 50% 75.36 0.0
09 02:15 Calm 16.09 Mostly Cloudy BKN060 10 -2 43% 75.39 0.0
09 01:55 NW 7 16.09 Mostly Cloudy BKN060 BKN070 BKN095 10 -2 43% 9 75.39 0.0
09 01:35 NW 6 16.09 Mostly Cloudy FEW055 BKN095 10 -2 43% 75.39 0.0
09 01:15 NW 9 16.09 Partly Cloudy FEW050 SCT055 SCT100 11 -2 41% 75.39 0.0
09 00:55 NW 11 16.09 A Few Clouds FEW048 FEW055 12 -1 41% 75.39 0.0
09 00:35 NW 13 16.09 Fair CLR 13 -1 38% 75.39 0.0
09 00:15 NW 15 16.09 Partly Cloudy FEW046 SCT100 14 -1 36% 75.39 0.0
08 23:55 NW 13 16.09 Mostly Cloudy FEW047 BKN110 15 -1 34% 75.39 0.0
08 23:35 N 11 16.09 Partly Cloudy FEW039 SCT047 15 -1 34% 75.39 0.0
08 23:15 N 13 16.09 A Few Clouds FEW041 FEW050 FEW055 17 0 32% 75.36 0.0
08 22:55 N 19 16.09 Partly Cloudy FEW044 SCT110 18 0 30% 75.36 0.0
08 22:35 N 15 16.09 Overcast FEW075 BKN095 OVC120 18 0 30% 75.36 0.0
08 22:15 NW 13 16.09 Overcast FEW070 SCT075 OVC110 17 0 32% 75.34 0.0
08 21:55 N 11 G 20 16.09 Overcast OVC110 17 -1 30% 75.31 0.0
08 21:35 NW 15 16.09 Mostly Cloudy BKN110 17 -1 30% 75.29 0.0
08 21:15 NW 13 16.09 Fair CLR 17 -2 27% 75.26 0.0
08 20:55 NW 15 16.09 Fair CLR 18 -2 26% 75.23 0.0
08 20:35 NW 15 16.09 Fair CLR 20 -2 23% 75.21 0.0
08 20:15 NW 15 16.09 A Few Clouds FEW110 21 0 25% 75.21 0.0
08 19:35 NW 7 16.09 A Few Clouds FEW110 22 0 23% 75.21 0.0
08 19:15 NW 13 16.09 Mostly Cloudy BKN110 23 0 22% 75.21 0.0
08 18:55 NW 15 16.09 Mostly Cloudy BKN110 23 -1 20% 75.21 0.0
08 18:35 NW 30 16.09 Partly Cloudy SCT110 23 -2 19% 75.23 0.0
08 18:15 W 22 G 33 0.00 Fair CLR 24 -1 19% 24 75.23 0.0
08 17:55 W 20 G 31 16.09 A Few Clouds FEW110 23 -2 19% 75.26 0.0
08 17:15 NW 24 G 39 16.09 A Few Clouds FEW110 24 -2 18% 24 75.26 0.0
08 16:55 W 15 16.09 Partly Cloudy SCT110 24 -3 16% 24 75.29 0.0
08 16:35 W 30 G 43 16.09 A Few Clouds FEW110 24 -3 16% 24 75.31 0.0
08 16:15 W 22 G 43 16.09 Partly Cloudy SCT110 25 -3 15% 25 75.31 0.0
08 15:55 W 28 G 41 16.09 Partly Cloudy SCT110 25 -3 15% 25 75.34 0.0
08 15:35 W 28 G 37 16.09 A Few Clouds FEW110 24 -3 16% 24 75.36 0.0
08 15:15 NW 20 G 35 16.09 Fair CLR 24 -3 16% 24 75.39 0.0
08 14:55 NW 26 G 44 16.09 Fair CLR 24 -3 16% 24 75.41 0.0
08 14:35 NW 22 G 31 16.09 Fair CLR 23 -4 16% 75.44 0.0
08 14:15 W 15 G 33 16.09 Fair CLR 23 -3 17% 75.46 0.0
08 13:55 W 20 G 31 16.09 Fair CLR 23 -3 17% 75.49 0.0
08 13:35 W 22 16.09 Fair CLR 22 -4 17% 75.49 0.0
08 13:15 Vrbl 7 G 28 16.09 Fair CLR 21 -5 17% 75.51 0.0
08 12:55 W 22 16.09 A Few Clouds FEW100 22 -4 17% 75.54 0.0
08 12:35 Vrbl 6 G 28 16.09 Fair CLR 21 -5 17% 75.54 0.0
08 12:15 W 15 G 24 16.09 Fair CLR 21 -5 17% 75.59 0.0
08 11:55 NW 19 16.09 Fair CLR 21 -5 17% 75.59 0.0
08 11:35 W 13 G 31 16.09 Fair CLR 20 -5 18% 75.62 0.0
08 11:15 NW 17 G 33 16.09 Fair CLR 20 -5 18% 75.64 0.0
08 10:55 W 17 G 31 16.09 Fair CLR 20 -3 21% 75.64 0.0
08 10:35 W 13 G 33 16.09 Fair CLR 19 -4 21% 75.67 0.0
08 10:15 SW 17 16.09 Fair CLR 18 -2 26% 75.69 0.0
08 09:55 SW 15 16.09 Fair CLR 17 -1 30% 75.69 0.0
08 09:35 SW 17 16.09 Fair CLR 16 -1 31% 75.69 0.0
08 09:15 SW 17 14.48 Fair CLR 15 -2 31% 75.72 0.0
08 08:55 S 15 16.09 Fair CLR 14 -3 31% 75.72 0.0
08 08:15 S 13 16.09 Fair CLR 11 -3 38% 75.74 0.0
08 07:35 S 6 16.09 Fair CLR 9 -3 43% 75.72 0.0
08 07:15 Calm 16.09 Fair CLR 7 -3 49% 75.72 0.0
08 06:55 S 7 16.09 Fair CLR 6 -3 53% 5 75.72 0.0
08 06:35 S 9 16.09 Fair CLR 5 -4 53% 3 75.72 0.0
08 06:15 S 7 16.09 Fair CLR 4 -4 56% 2 75.72 0.0
08 05:55 S 11 16.09 Fair CLR 3 -4 60% 0 75.72 0.0
08 05:35 Calm 16.09 Fair CLR 4 -4 56% 75.72 0.0
08 05:15 S 6 16.09 Fair CLR 3 -5 56% 75.72 0.0
08 04:55 SE 6 16.09 Fair CLR 4 -4 56% 75.72 0.0
08 04:35 E 6 16.09 A Few Clouds FEW055 4 -4 56% 75.74 0.0
08 04:15 Calm 16.09 A Few Clouds FEW055 6 -5 46% 75.72 0.0
08 03:55 Calm 16.09 A Few Clouds FEW050 7 -5 43% 75.74 0.0
08 03:35 Calm 16.09 A Few Clouds FEW050 FEW060 6 -5 46% 75.74 0.0
08 03:15 SE 7 16.09 Partly Cloudy SCT050 6 -5 46% 5 75.74 0.0
08 02:35 E 11 16.09 Mostly Cloudy FEW046 BKN055 BKN065 8 -5 40% 6 75.74 0.0
08 02:15 SE 15 16.09 Mostly Cloudy FEW040 SCT047 BKN055 9 -4 40% 7 75.74 0.0
08 01:55 SE 15 16.09 Partly Cloudy FEW045 SCT055 SCT070 9 -5 37% 7 75.74 0.0
08 01:35 SE 13 16.09 Mostly Cloudy FEW036 FEW042 BKN055 7 -5 43% 5 75.77 0.0
08 01:15 E 11 16.09 Mostly Cloudy FEW034 SCT041 BKN049 8 -5 40% 6 75.77 0.0
08 00:55 SE 17 16.09 Mostly Cloudy FEW033 SCT043 BKN050 8 -5 40% 6 75.77 0.0
08 00:35 E 15 16.09 Partly Cloudy FEW045 SCT055 SCT070 9 -5 37% 7 75.77 0.0
08 00:15 SE 17 16.09 Partly Cloudy FEW050 SCT065 10 -5 35% 8 75.77 0.0
07 23:55 SE 15 16.09 A Few Clouds FEW049 FEW060 10 -5 35% 8 75.77 0.0
07 23:35 SE 15 16.09 A Few Clouds FEW048 FEW070 10 -5 35% 8 75.77 0.0
07 23:15 E 9 16.09 A Few Clouds FEW044 FEW060 9 -5 37% 8 75.79 0.0
07 22:55 E 9 16.09 A Few Clouds FEW044 FEW055 9 -4 40% 8 75.79 0.0
07 22:35 E 13 16.09 Partly Cloudy FEW044 SCT050 10 -5 35% 8 75.79 0.0
07 21:55 NE 9 16.09 Mostly Cloudy FEW035 BKN041 BKN050 10 -6 32% 9 75.79 0.0
07 21:35 N 9 16.09 Partly Cloudy FEW039 SCT046 SCT055 10 -7 30% 9 75.77 0.0
07 21:15 N 9 16.09 A Few Clouds FEW046 11 -7 28% 75.77 0.0
07 20:55 N 11 16.09 Fair CLR 13 -6 26% 75.74 0.0
07 20:35 N 11 16.09 Fair CLR 15 -6 23% 75.72 0.0
07 20:15 N 9 16.09 Fair CLR 16 -6 22% 75.72 0.0
07 19:55 NW 19 16.09 Fair CLR 17 -6 20% 75.69 0.0
07 19:35 NW 20 16.09 Fair CLR 17 -6 20% 75.69 0.0
07 19:15 NW 17 16.09 Fair CLR 18 -6 19% 75.69 0.0
07 18:55 NW 13 16.09 Fair CLR 18 -6 19% 75.69 0.0
07 18:35 NW 24 16.09 Fair CLR 18 -6 19% 75.69 0.0
07 18:15 NW 19 16.09 Fair CLR 18 -6 19% 75.69 0.0
07 17:55 NW 24 16.09 Fair CLR 18 -6 19% 75.69 0.0
07 17:35 Vrbl 9 G 22 16.09 Fair CLR 18 -5 21% 75.69 0.0
07 17:15 NW 15 G 28 16.09 Fair CLR 18 -6 19% 75.72 0.0
07 16:55 NW 20 16.09 Fair CLR 18 -5 21% 75.72 0.0
07 16:35 NW 20 G 33 16.09 Fair CLR 19 -6 18% 75.72 0.0
07 16:15 NW 17 G 30 16.09 Fair CLR 18 -5 21% 75.72 0.0
07 15:55 W 9 G 30 16.09 Fair CLR 18 -5 21% 75.74 0.0
07 15:35 W 20 G 31 16.09 Fair CLR 18 -5 21% 75.74 0.0
07 15:15 SW 13 G 33 16.09 Fair CLR 17 -5 22% 75.77 0.0
07 14:35 Vrbl 9 G 28 16.09 Fair CLR 17 -5 22% 75.79 0.0
07 14:15 W 13 16.09 Fair CLR 17 -4 24% 75.79 0.0
07 13:55 NW 20 G 31 0.00 Fair CLR 17 -5 22% 75.79 0.0
07 13:35 Calm 16.09 Fair CLR 16 -4 25% 75.79 0.0
07 13:15 N 15 G 30 16.09 Fair CLR 16 -4 25% 75.82 0.0
07 12:55 N 17 16.09 Fair CLR 16 -3 27% 75.82 0.0
07 12:15 NW 11 G 26 16.09 Fair CLR 15 -3 29% 75.84 0.0
07 11:55 NE 11 G 22 16.09 Fair CLR 15 -3 29% 75.87 0.0
07 11:35 Vrbl 11 16.09 Fair CLR 14 -3 31% 75.87 0.0
07 10:55 Vrbl 6 16.09 Fair CLR 13 -3 33% 75.87 0.0
07 10:35 Calm 16.09 Fair CLR 13 -3 33% 75.87 0.0
07 10:15 Vrbl 7 16.09 Fair CLR 13 -3 33% 75.87 0.0
07 09:55 Vrbl 11 16.09 Fair CLR 12 -3 35% 75.87 0.0
07 09:35 Vrbl 7 16.09 Fair CLR 11 -3 38% 75.9 0.0
07 09:15 NE 15 16.09 Fair CLR 11 -3 38% 75.87 0.0
07 08:55 N 9 16.09 Fair CLR 10 -4 37% 9 75.9 0.0
07 08:35 NW 7 G 19 16.09 Fair CLR 10 -3 40% 9 75.9 0.0
07 08:15 NW 9 16.09 Fair CLR 9 -3 43% 8 75.87 0.0
07 07:55 S 7 16.09 Fair CLR 9 -3 43% 8 75.87 0.0
07 07:35 SE 7 16.09 Fair CLR 8 -3 46% 7 75.87 0.0
07 07:15 SE 9 16.09 Fair CLR 7 -3 49% 5 75.87 0.0
07 06:55 E 7 16.09 Mostly Cloudy BKN090 5 -3 57% 4 75.87 0.0
07 06:35 E 7 14.48 Overcast OVC090 4 -3 61% 2 75.87 0.0
07 05:55 Calm 16.09 Overcast SCT075 OVC090 5 -3 57% 75.87 0.0
07 05:35 NE 7 16.09 Overcast OVC075 5 -3 57% 4 75.9 0.0
07 05:15 Calm 16.09 Overcast OVC075 6 -4 49% 75.9 0.0
07 04:55 S 9 16.09 Mostly Cloudy FEW055 SCT070 BKN075 6 -4 49% 4 75.9 0.0
07 04:35 S 11 16.09 Overcast OVC100 6 -4 49% 4 75.9 0.0
07 04:15 S 9 16.09 Overcast OVC095 6 -5 46% 4 75.92 0.0
07 03:55 SE 13 16.09 Overcast FEW075 OVC095 6 -5 46% 4 75.92 0.0
07 03:35 S 13 16.09 Overcast OVC090 6 -4 49% 4 75.95 0.0
07 03:15 S 17 16.09 Overcast BKN080 OVC110 6 -4 49% 3 75.97 0.0
07 02:55 SE 20 16.09 Overcast SCT080 BKN090 OVC110 6 -4 49% 3 75.97 0.0
07 02:35 SE 22 16.09 Overcast SCT080 BKN090 OVC110 7 -4 46% 4 76 0.0
07 02:15 SE 22 16.09 Overcast OVC095 7 -5 43% 4 76.02 0.0
07 01:55 SE 19 16.09 Overcast OVC095 6 -5 46% 3 76.05 0.0
07 01:35 SE 17 16.09 Overcast OVC095 7 -5 43% 4 76.07 0.0
07 01:15 E 13 16.09 Overcast OVC090 7 -5 43% 5 76.1 0.0
07 00:55 E 15 16.09 Overcast FEW080 OVC095 6 -5 46% 3 76.1 0.0
07 00:35 E 17 16.09 Overcast FEW075 OVC095 7 -5 43% 4 76.1 0.0
07 00:15 SE 15 16.09 Overcast OVC090 5 -5 49% 2 76.1 0.0
06 23:35 E 15 16.09 Overcast FEW041 SCT065 OVC090 4 -6 48% 1 76.12 0.0
06 23:15 E 15 16.09 Overcast FEW048 FEW070 OVC085 3 -6 52% -0 76.12 0.0
06 22:55 E 9 16.09 Overcast FEW070 OVC085 4 -6 48% 2 76.12 0.0
06 22:35 E 7 16.09 Overcast SCT070 OVC080 5 -6 45% 4 76.15 0.0
06 22:15 E 6 16.09 Overcast OVC080 6 -6 42% 76.15 0.0
06 21:55 E 6 16.09 Overcast FEW070 OVC080 6 -6 42% 76.15 0.0
06 21:35 Calm 16.09 Overcast FEW070 OVC085 6 -6 42% 76.15 0.0
06 20:55 NW 7 16.09 Fair CLR 8 -6 37% 7 76.12 0.0
06 20:35 NW 11 9.66 Fair with Haze CLR 9 -6 34% 8 76.12 0.0
06 20:15 NW 11 16.09 Fair CLR 10 -6 32% 9 76.12 0.0
06 19:55 W 15 16.09 Fair CLR 11 -6 30% 76.12 0.0
06 19:35 NW 22 16.09 A Few Clouds FEW075 FEW090 12 -6 28% 76.12 0.0
06 19:15 NW 17 G 28 16.09 A Few Clouds FEW080 12 -6 28% 76.15 0.0
06 18:55 NW 22 G 33 16.09 Partly Cloudy SCT080 12 -6 28% 76.15 0.0
06 18:35 NW 28 G 39 16.09 Partly Cloudy SCT080 SCT085 12 -6 28% 76.15 0.0
06 18:15 W 31 G 41 16.09 Partly Cloudy SCT080 13 -6 26% 76.17 0.0
06 17:55 NW 24 G 43 16.09 A Few Clouds FEW075 12 -6 28% 76.17 0.0
06 17:35 NW 33 G 44 0.00 A Few Clouds and Breezy FEW070 12 -6 28% 76.17 0.0
06 17:15 NW 22 G 37 16.09 Fair CLR 11 -6 30% 76.2 0.0
06 16:55 NW 31 G 43 16.09 Partly Cloudy SCT070 SCT080 13 -6 26% 76.2 0.0
06 16:35 NW 31 G 46 16.09 Partly Cloudy SCT070 SCT080 12 -6 28% 76.2 0.0
06 16:15 W 33 G 43 16.09 A Few Clouds and Breezy FEW070 12 -5 30% 76.23 0.0
06 15:55 NW 26 G 48 16.09 A Few Clouds FEW065 12 -6 28% 76.23 0.0
06 15:35 NW 31 G 46 16.09 Mostly Cloudy BKN065 11 -5 32% 76.25 0.0
06 15:15 NW 35 G 46 16.09 Mostly Cloudy and Breezy BKN065 BKN075 12 -5 30% 76.28 0.0
Date Time (cdt) Wind (kph) Vis. (km) Weather Sky Cond. Air Dwpt Max. Min. Relative Humidity Wind Chill (°C) Heat Index (°C) altimeter (cm) sea level (mb) 1 hr 3 hr 6 hr
6 hour
Temperature (ºC) Pressure Precipitation (cm)